Time;durP1;ratioP1;P1;durP2;ratioP2;P2;SDS_P1;SDS_P2;PMS_P1;PMS_P2;Temp;Humidity;BMP_temperature;BMP_pressure;BME280_temperature;BME280_humidity;BME280_pressure;Samples;Min_cycle;Max_cycle;Signal;HPM_P1;HPM_P2
2021/11/04 00:00:34;;;;;;;;;19.75;19.00;;;;;11.36;59.04;100056.59;2092419;28;47175;-61
2021/11/04 00:01:35;;;;;;;;;25.80;23.80;;;;;11.35;59.33;100057.53;2092408;28;46048;-62
2021/11/04 00:02:35;;;;;;;;;19.50;19.00;;;;;11.35;59.41;100054.88;2075472;28;46971;-63
2021/11/04 00:03:36;;;;;;;;;20.50;20.50;;;;;11.35;59.37;100060.19;2075164;28;48100;-63
2021/11/04 00:04:37;;;;;;;;;20.50;20.50;;;;;11.33;59.40;100062.03;2089425;28;48115;-63
2021/11/04 00:05:37;;;;;;;;;18.25;17.75;;;;;11.32;59.39;100058.50;2083488;28;47602;-62
2021/11/04 00:06:38;;;;;;;;;21.50;21.50;;;;;11.32;59.48;100061.16;2087747;28;48330;-62
2021/11/04 00:07:39;;;;;;;;;22.00;21.00;;;;;11.32;59.32;100052.34;2092346;28;47115;-62
2021/11/04 00:08:40;;;;;;;;;23.20;22.40;;;;;11.32;59.51;100055.84;2092037;28;45294;-62
2021/11/04 00:09:41;;;;;;;;;23.75;22.50;;;;;11.32;59.56;100057.66;2075176;28;45243;-62
2021/11/04 00:10:42;;;;;;;;;23.20;23.00;;;;;11.31;59.31;100050.59;2074983;28;45747;-63
2021/11/04 00:11:42;;;;;;;;;24.25;23.00;;;;;11.31;59.49;100055.91;2089977;28;47299;-62
2021/11/04 00:12:43;;;;;;;;;23.00;21.50;;;;;11.30;59.24;100055.00;2092120;28;47346;-62
2021/11/04 00:13:43;;;;;;;;;22.50;21.50;;;;;11.30;59.34;100051.50;2083398;28;47187;-67
2021/11/04 00:14:44;;;;;;;;;21.50;20.25;;;;;11.28;59.24;100051.56;2083283;28;46960;-67
2021/11/04 00:15:45;;;;;;;;;21.50;21.00;;;;;11.28;59.17;100048.03;2090255;28;47449;-69
2021/11/04 00:16:45;;;;;;;;;19.25;18.75;;;;;11.27;59.27;100051.59;2092199;28;45135;-67
2021/11/04 00:17:46;;;;;;;;;22.50;21.50;;;;;11.27;59.40;100048.94;2083237;28;47686;-67
2021/11/04 00:18:46;;;;;;;;;22.25;22.00;;;;;11.26;59.40;100060.50;2083333;28;48512;-67
2021/11/04 00:19:47;;;;;;;;;21.50;20.00;;;;;11.24;59.24;100044.63;2091405;28;47208;-67
2021/11/04 00:20:47;;;;;;;;;22.50;21.50;;;;;11.24;59.33;100044.63;2091787;28;45179;-66
2021/11/04 00:21:48;;;;;;;;;21.75;21.75;;;;;11.23;59.34;100044.69;2086903;28;47603;-66
2021/11/04 00:22:48;;;;;;;;;21.00;21.00;;;;;11.22;59.11;100042.94;2092143;28;47953;-66
2021/11/04 00:23:51;;;;;;;;;24.25;21.00;;;;;11.22;59.63;100045.59;2092119;28;47520;-66
2021/11/04 00:24:51;;;;;;;;;21.80;21.80;;;;;11.20;59.49;100048.31;2091116;28;47245;-68
2021/11/04 00:25:52;;;;;;;;;21.00;19.75;;;;;11.19;59.49;100041.28;2086753;28;47179;-68
2021/11/04 00:26:53;;;;;;;;;22.50;19.50;;;;;11.19;59.17;100043.94;2092133;28;47006;-68
2021/11/04 00:27:53;;;;;;;;;20.75;20.75;;;;;11.17;59.40;100043.09;2091927;28;47907;-66
2021/11/04 00:28:56;;;;;;;;;25.25;20.75;;;;;11.18;59.59;100045.72;2092109;28;47210;-66
2021/11/04 00:29:57;;;;;;;;;23.00;21.80;;;;;11.18;59.48;100044.84;2092027;28;48272;-66
2021/11/04 00:30:57;;;;;;;;;19.25;18.25;;;;;11.17;59.74;100057.22;2092227;28;47169;-66
2021/11/04 00:31:59;;;;;;;;;19.50;19.50;;;;;11.17;59.54;100048.41;2091612;28;47036;-67
2021/11/04 00:33:00;;;;;;;;;21.40;21.00;;;;;11.16;59.58;100044.00;2083389;28;47282;-66
2021/11/04 00:34:01;;;;;;;;;18.00;18.00;;;;;11.15;59.32;100047.59;2083201;28;47430;-66
2021/11/04 00:35:03;;;;;;;;;18.20;16.20;;;;;11.14;59.67;100045.84;2089691;28;47274;-66
2021/11/04 00:36:04;;;;;;;;;22.20;20.00;;;;;11.15;59.77;100050.25;2082801;28;48065;-66
2021/11/04 00:37:04;;;;;;;;;22.20;21.40;;;;;11.14;59.52;100056.47;2083409;28;48556;-66
2021/11/04 00:38:05;;;;;;;;;21.75;20.25;;;;;11.13;59.67;100055.63;2093755;28;47089;-66
2021/11/04 00:39:06;;;;;;;;;21.75;20.50;;;;;11.14;59.79;100048.50;2092344;28;48470;-66
2021/11/04 00:40:08;;;;;;;;;26.75;24.50;;;;;11.14;59.97;100052.03;2083160;28;47261;-66
2021/11/04 00:41:08;;;;;;;;;19.00;19.00;;;;;11.14;59.73;100049.38;2084978;28;47630;-66
2021/11/04 00:42:09;;;;;;;;;19.00;18.25;;;;;11.15;59.83;100050.25;2092253;28;47682;-65
2021/11/04 00:43:09;;;;;;;;;19.00;19.00;;;;;11.13;59.79;100047.66;2093860;28;45470;-65
2021/11/04 00:44:10;;;;;;;;;21.00;17.50;;;;;11.14;59.94;100054.69;2088887;28;48239;-65
2021/11/04 00:45:11;;;;;;;;;19.25;18.25;;;;;11.15;59.83;100060.88;2083190;28;47243;-64
2021/11/04 00:46:12;;;;;;;;;18.00;15.20;;;;;11.15;60.17;100063.53;2083127;28;48066;-64
2021/11/04 00:47:13;;;;;;;;;22.00;19.25;;;;;11.14;59.86;100057.34;2092193;28;45445;-65
2021/11/04 00:48:13;;;;;;;;;18.25;18.25;;;;;11.16;60.01;100065.25;2083386;28;47252;-65
2021/11/04 00:49:14;;;;;;;;;22.25;22.00;;;;;11.15;59.94;100058.22;2083437;28;48424;-65
2021/11/04 00:50:15;;;;;;;;;18.25;18.25;;;;;11.16;59.77;100062.59;2083103;28;48052;-65
2021/11/04 00:51:15;;;;;;;;;19.50;18.25;;;;;11.15;59.98;100061.72;2092046;28;47265;-65
2021/11/04 00:52:16;;;;;;;;;20.75;18.25;;;;;11.16;59.93;100060.81;2083111;28;47285;-64
2021/11/04 00:53:17;;;;;;;;;19.50;18.75;;;;;11.17;59.96;100064.34;2083412;28;45462;-65
2021/11/04 00:54:17;;;;;;;;;22.50;20.00;;;;;11.18;59.89;100066.97;2092053;28;47229;-65
2021/11/04 00:55:18;;;;;;;;;18.00;17.25;;;;;11.20;60.04;100069.56;2092053;28;48358;-65
2021/11/04 00:56:18;;;;;;;;;19.25;19.25;;;;;11.22;59.68;100066.84;2075621;28;47922;-65
2021/11/04 00:57:19;;;;;;;;;20.00;18.50;;;;;11.23;60.02;100064.13;2071952;28;48077;-65
2021/11/04 00:58:19;;;;;;;;;17.50;16.25;;;;;11.25;59.96;100061.44;2090339;28;45140;-65
2021/11/04 00:59:20;;;;;;;;;20.50;20.50;;;;;11.27;59.90;100063.09;2083206;28;48132;-65
2021/11/04 01:00:20;;;;;;;;;21.25;20.50;;;;;11.28;59.79;100061.31;2083054;28;47096;-65
2021/11/04 01:01:23;;;;;;;;;20.00;20.00;;;;;11.29;59.81;100057.72;2092066;28;47292;-65
2021/11/04 01:02:23;;;;;;;;;18.80;18.20;;;;;11.30;59.81;100064.78;2092210;28;48416;-65
2021/11/04 01:03:26;;;;;;;;;19.75;19.00;;;;;11.31;59.43;100066.53;2092020;28;47601;-65
2021/11/04 01:04:26;;;;;;;;;19.20;19.20;;;;;11.31;59.42;100066.53;2088693;28;48515;-65
2021/11/04 01:05:27;;;;;;;;;19.50;18.25;;;;;11.31;59.42;100066.53;2084170;28;48555;-65
2021/11/04 01:06:27;;;;;;;;;17.25;17.25;;;;;11.32;59.48;100069.13;2092528;28;45304;-65
2021/11/04 01:07:28;;;;;;;;;20.00;18.50;;;;;11.32;59.65;100062.97;2083058;28;45307;-65
2021/11/04 01:08:28;;;;;;;;;16.75;16.50;;;;;11.31;59.58;100059.44;2083154;28;48001;-65
2021/11/04 01:09:29;;;;;;;;;16.25;16.00;;;;;11.32;59.36;100063.81;2091022;28;48215;-65
2021/11/04 01:10:29;;;;;;;;;18.50;18.00;;;;;11.32;59.56;100060.31;2083208;28;46341;-66
2021/11/04 01:11:30;;;;;;;;;16.75;16.75;;;;;11.33;59.48;100065.56;2079512;28;48279;-64
2021/11/04 01:12:31;;;;;;;;;16.75;16.75;;;;;11.32;59.68;100066.47;2092178;28;47409;-65
2021/11/04 01:13:31;;;;;;;;;22.00;16.25;;;;;11.32;59.57;100063.81;2091503;28;47335;-66
2021/11/04 01:14:32;;;;;;;;;18.25;16.50;;;;;11.31;59.57;100054.13;2092067;28;46772;-65
2021/11/04 01:15:33;;;;;;;;;14.75;14.75;;;;;11.31;59.62;100061.22;2091793;28;47641;-65
2021/11/04 01:16:33;;;;;;;;;17.00;16.50;;;;;11.32;59.34;100065.63;2092034;28;47596;-65
2021/11/04 01:17:34;;;;;;;;;18.50;17.25;;;;;11.32;59.57;100062.97;2091723;28;46988;-65
2021/11/04 01:18:35;;;;;;;;;17.00;16.00;;;;;11.31;59.62;100070.06;2092048;28;47820;-65
2021/11/04 01:19:36;;;;;;;;;17.00;17.00;;;;;11.33;59.64;100059.38;2082662;28;47441;-65
2021/11/04 01:20:36;;;;;;;;;18.75;17.25;;;;;11.33;59.60;100057.59;2083138;28;47262;-65
2021/11/04 01:21:37;;;;;;;;;17.50;17.25;;;;;11.35;59.24;100060.19;2086714;28;47368;-65
2021/11/04 01:22:37;;;;;;;;;17.50;16.50;;;;;11.34;59.74;100061.13;2092000;28;47960;-64
2021/11/04 01:23:38;;;;;;;;;18.00;16.50;;;;;11.34;59.36;100061.13;2091603;28;46670;-67
2021/11/04 01:24:39;;;;;;;;;18.00;16.80;;;;;11.35;59.49;100057.53;2082553;28;46209;-66
2021/11/04 01:25:40;;;;;;;;;16.25;16.00;;;;;11.33;59.25;100056.72;2076274;28;46408;-67
2021/11/04 01:26:40;;;;;;;;;22.25;17.25;;;;;11.32;59.38;100055.00;2091839;28;45259;-66
2021/11/04 01:27:41;;;;;;;;;17.75;17.75;;;;;11.32;59.31;100060.31;2082645;28;48261;-66
2021/11/04 01:28:41;;;;;;;;;17.50;17.00;;;;;11.30;59.46;100057.66;2082802;28;47537;-66
2021/11/04 01:29:42;;;;;;;;;14.50;13.75;;;;;11.29;59.40;100060.38;2091450;28;47231;-67
2021/11/04 01:30:43;;;;;;;;;17.75;16.00;;;;;11.27;59.50;100063.09;2083009;28;47032;-66
2021/11/04 01:31:44;;;;;;;;;17.80;17.00;;;;;11.25;59.58;100056.13;2074239;28;47370;-66
2021/11/04 01:32:44;;;;;;;;;16.00;14.75;;;;;11.24;59.47;100063.22;2080708;28;47229;-66
2021/11/04 01:33:45;;;;;;;;;14.00;14.00;;;;;11.24;59.77;100065.88;2084302;28;47272;-67
2021/11/04 01:34:45;;;;;;;;;17.00;16.00;;;;;11.23;59.36;100060.63;2091713;28;48371;-66
2021/11/04 01:35:46;;;;;;;;;15.50;14.25;;;;;11.22;59.43;100066.84;2091635;28;46745;-66
2021/11/04 01:36:46;;;;;;;;;20.75;18.50;;;;;11.20;59.29;100062.47;2091859;28;45284;-66
2021/11/04 01:37:47;;;;;;;;;18.25;16.50;;;;;11.19;59.50;100071.34;2094095;28;48198;-66
2021/11/04 01:38:47;;;;;;;;;14.50;14.50;;;;;11.17;59.38;100067.84;2091947;28;47381;-66
2021/11/04 01:39:48;;;;;;;;;19.50;18.00;;;;;11.17;59.53;100073.16;2091877;28;47192;-65
2021/11/04 01:40:50;;;;;;;;;15.75;13.75;;;;;11.16;59.35;100070.56;2094033;28;47324;-65
2021/11/04 01:41:52;;;;;;;;;16.80;16.80;;;;;11.15;59.80;100069.69;2091800;28;48238;-65
2021/11/04 01:42:54;;;;;;;;;15.60;14.20;;;;;11.14;59.45;100064.44;2094219;28;46009;-66
2021/11/04 01:43:54;;;;;;;;;14.60;14.00;;;;;11.13;59.82;100068.88;2088992;28;47414;-65
2021/11/04 01:44:55;;;;;;;;;18.50;18.25;;;;;11.12;59.74;100063.63;2082078;28;45466;-66
2021/11/04 01:45:55;;;;;;;;;17.00;17.00;;;;;11.12;59.73;100063.63;2080324;28;47479;-65
2021/11/04 01:46:56;;;;;;;;;16.75;14.25;;;;;11.12;59.71;100063.63;2084406;28;47291;-65
2021/11/04 01:47:57;;;;;;;;;15.50;15.50;;;;;11.10;59.77;100065.47;2091577;28;47363;-66
2021/11/04 01:48:58;;;;;;;;;17.00;16.00;;;;;11.10;59.71;100069.00;2091682;28;47274;-65
2021/11/04 01:49:59;;;;;;;;;18.00;16.20;;;;;11.08;59.92;100069.97;2082696;28;48385;-64
2021/11/04 01:50:59;;;;;;;;;20.50;18.00;;;;;11.08;59.86;100062.88;2074611;28;45622;-64
2021/11/04 01:52:00;;;;;;;;;16.75;16.00;;;;;11.07;59.85;100069.13;2082722;28;46205;-65
2021/11/04 01:53:01;;;;;;;;;17.50;16.75;;;;;11.07;59.92;100065.59;2082775;28;47116;-64
2021/11/04 01:54:02;;;;;;;;;17.20;15.40;;;;;11.06;59.69;100061.22;2082657;28;47190;-65
2021/11/04 01:55:02;;;;;;;;;16.50;16.00;;;;;11.04;60.01;100058.56;2082982;28;45385;-65
2021/11/04 01:56:03;;;;;;;;;12.75;12.75;;;;;11.02;60.12;100055.09;2082774;28;48617;-64
2021/11/04 01:57:04;;;;;;;;;17.60;17.60;;;;;11.03;59.87;100061.28;2091608;28;47262;-65
2021/11/04 01:58:05;;;;;;;;;17.80;17.00;;;;;11.01;60.01;100058.69;2091667;28;48193;-66
2021/11/04 01:59:06;;;;;;;;;16.75;16.75;;;;;11.02;60.10;100068.38;2091387;28;48058;-65
2021/11/04 02:00:07;;;;;;;;;16.00;15.50;;;;;11.01;60.01;100069.31;2091981;28;46745;-65
2021/11/04 02:01:08;;;;;;;;;10.40;10.40;;;;;11.01;59.92;100068.44;2082428;28;47103;-65
2021/11/04 02:02:19;;;;;;;;;17.40;17.40;;;;;11.00;60.31;100066.72;2074523;28;47063;-65
2021/11/04 02:03:30;;;;;;;;;14.80;14.80;;;;;11.00;60.27;100064.91;2083936;28;47124;-65
2021/11/04 02:04:39;;;;;;;;;17.20;17.20;;;;;10.99;60.14;100068.50;2097164;28;47113;-65
2021/11/04 02:05:49;;;;;;;;;19.40;16.80;;;;;10.99;60.14;100062.31;2085696;28;47414;-65
2021/11/04 02:07:00;;;;;;;;;18.00;17.00;;;;;10.98;60.04;100063.25;2091794;28;47227;-68
2021/11/04 02:08:17;;;;;;;;;18.00;16.40;;;;;10.97;60.08;100061.50;2084982;28;47460;-67
2021/11/04 02:10:09;;;;;;;;;16.00;16.00;;;;;10.97;60.18;100061.50;2090829;28;46431;-66
2021/11/04 02:11:16;;;;;;;;;17.00;16.20;;;;;10.96;60.26;100067.75;2057408;28;48502;-66
2021/11/04 02:12:28;;;;;;;;;13.80;13.80;;;;;10.96;60.42;100065.09;2078438;28;46240;-66
2021/11/04 02:13:43;;;;;;;;;18.40;16.60;;;;;10.94;60.23;100065.13;2091393;28;45299;-66
2021/11/04 02:14:48;;;;;;;;;15.00;14.20;;;;;10.95;60.57;100068.66;2090719;28;48194;-66
2021/11/04 02:15:52;;;;;;;;;18.20;17.60;;;;;10.93;60.51;100071.38;2091258;28;45334;-66
2021/11/04 02:16:56;;;;;;;;;17.00;17.00;;;;;10.93;60.56;100074.03;2091819;28;48825;-67
2021/11/04 02:17:57;;;;;;;;;16.60;15.80;;;;;10.95;60.55;100069.53;2091303;28;48282;-66
2021/11/04 02:19:16;;;;;;;;;17.00;15.80;;;;;10.95;60.50;100077.50;2091488;28;46537;-66
2021/11/04 02:20:29;;;;;;;;;13.60;13.60;;;;;10.96;60.68;100075.69;2091562;28;48726;-65
2021/11/04 02:21:41;;;;;;;;;17.60;17.60;;;;;10.95;60.70;100073.97;2086913;28;48043;-67
2021/11/04 02:22:53;;;;;;;;;17.80;17.00;;;;;10.96;60.52;100070.41;2091527;28;48183;-66
2021/11/04 02:24:12;;;;;;;;;15.40;15.00;;;;;10.95;60.47;100068.66;2091216;28;47074;-67
2021/11/04 02:25:19;;;;;;;;;18.00;15.00;;;;;10.95;60.80;100073.97;2087221;28;47793;-66
2021/11/04 02:26:21;;;;;;;;;16.40;15.80;;;;;10.93;60.56;100071.38;2089791;28;46315;-67
2021/11/04 02:27:22;;;;;;;;;17.00;15.80;;;;;10.94;60.69;100080.19;2082409;28;47427;-66
2021/11/04 02:28:23;;;;;;;;;15.50;15.00;;;;;10.93;60.53;100079.34;2082664;28;48342;-66
2021/11/04 02:29:25;;;;;;;;;17.40;17.00;;;;;10.93;60.65;100082.00;2079497;28;47113;-66
2021/11/04 02:30:29;;;;;;;;;17.00;16.00;;;;;10.93;60.45;100075.81;2082628;28;47362;-67
2021/11/04 02:31:30;;;;;;;;;17.20;16.00;;;;;10.91;60.63;100081.16;2091422;28;48446;-67
2021/11/04 02:32:32;;;;;;;;;18.40;16.00;;;;;10.91;60.41;100082.00;2091263;28;47362;-66
2021/11/04 02:33:32;;;;;;;;;16.60;15.60;;;;;10.91;60.34;100081.16;2091213;28;47128;-66
2021/11/04 02:34:34;;;;;;;;;16.00;16.00;;;;;10.88;60.77;100082.13;2082314;28;48650;-66
2021/11/04 02:35:36;;;;;;;;;16.00;15.00;;;;;10.88;60.47;100084.78;2082690;28;48486;-66
2021/11/04 02:36:39;;;;;;;;;14.60;14.60;;;;;10.89;60.49;100085.66;2091407;28;47385;-66
2021/11/04 02:37:42;;;;;;;;;17.00;17.00;;;;;10.87;60.43;100091.00;2084730;28;47212;-66
2021/11/04 02:38:42;;;;;;;;;15.20;13.20;;;;;10.87;60.58;100088.34;2082794;28;46428;-66
2021/11/04 02:39:44;;;;;;;;;15.25;15.25;;;;;10.87;60.78;100085.69;2091468;28;47018;-66
2021/11/04 02:40:46;;;;;;;;;15.00;14.40;;;;;10.86;60.54;100085.75;2093379;28;47348;-66
2021/11/04 02:41:46;;;;;;;;;15.40;15.40;;;;;10.86;60.68;100085.75;2091214;28;48698;-66
2021/11/04 02:42:48;;;;;;;;;17.75;17.75;;;;;10.86;60.32;100083.97;2093401;28;48217;-66
2021/11/04 02:43:50;;;;;;;;;17.80;17.00;;;;;10.86;60.55;100080.44;2089431;28;47614;-67
2021/11/04 02:44:51;;;;;;;;;17.40;17.40;;;;;10.84;60.75;100080.50;2080938;28;47233;-66
2021/11/04 02:45:53;;;;;;;;;15.00;15.00;;;;;10.83;60.56;100084.06;2074152;28;48473;-65
2021/11/04 02:46:55;;;;;;;;;16.00;15.40;;;;;10.83;60.53;100084.06;2074328;28;47522;-67
2021/11/04 02:47:56;;;;;;;;;18.40;17.60;;;;;10.83;60.49;100088.50;2082554;28;47315;-66
2021/11/04 02:48:56;;;;;;;;;14.50;14.00;;;;;10.83;60.75;100089.38;2091358;28;47668;-66
2021/11/04 02:49:57;;;;;;;;;16.75;16.75;;;;;10.82;60.63;100090.31;2091399;28;46100;-66
2021/11/04 02:50:58;;;;;;;;;20.00;18.00;;;;;10.81;60.53;100082.41;2082618;28;47328;-65
2021/11/04 02:52:02;;;;;;;;;18.80;18.80;;;;;10.80;60.74;100089.50;2082134;28;47337;-65
2021/11/04 02:53:02;;;;;;;;;25.00;19.00;;;;;10.79;60.88;100090.38;2082300;28;47062;-65
2021/11/04 02:54:06;;;;;;;;;20.25;19.50;;;;;10.79;60.71;100085.06;2082145;28;47437;-65
2021/11/04 02:55:07;;;;;;;;;15.60;14.80;;;;;10.79;61.14;100086.84;2082486;28;47138;-65
2021/11/04 02:56:08;;;;;;;;;18.80;18.00;;;;;10.77;60.60;100086.91;2082368;28;46112;-65
2021/11/04 02:57:08;;;;;;;;;18.75;15.75;;;;;10.77;60.54;100089.56;2082427;28;46581;-65
2021/11/04 02:58:11;;;;;;;;;19.50;17.50;;;;;10.78;60.96;100090.44;2074083;28;45308;-64
2021/11/04 02:59:18;;;;;;;;;17.60;17.60;;;;;10.76;60.57;100087.84;2082816;28;47230;-65
2021/11/04 03:00:18;;;;;;;;;19.00;16.60;;;;;10.76;60.86;100087.84;2091331;28;47410;-65
2021/11/04 03:01:19;;;;;;;;;16.00;16.00;;;;;10.75;60.94;100090.53;2091114;28;47262;-65
2021/11/04 03:02:19;;;;;;;;;19.25;19.25;;;;;10.75;60.75;100090.53;2091260;28;47087;-65
2021/11/04 03:03:20;;;;;;;;;22.75;20.75;;;;;10.74;60.64;100096.78;2091222;28;47222;-65
2021/11/04 03:04:21;;;;;;;;;20.75;20.00;;;;;10.73;61.03;100095.91;2086590;28;45125;-65
2021/11/04 03:05:22;;;;;;;;;17.20;16.60;;;;;10.74;60.97;100099.41;2082115;28;47494;-65
2021/11/04 03:06:22;;;;;;;;;24.25;21.25;;;;;10.73;60.80;100101.22;2074351;28;45521;-65
2021/11/04 03:07:23;;;;;;;;;23.25;23.00;;;;;10.72;60.93;100102.13;2082405;28;46244;-65
2021/11/04 03:08:27;;;;;;;;;24.00;22.50;;;;;10.72;60.69;100096.81;2090649;28;47370;-65
2021/11/04 03:09:27;;;;;;;;;24.20;23.40;;;;;10.72;60.90;100099.47;2089957;28;48129;-65
2021/11/04 03:10:28;;;;;;;;;20.75;19.75;;;;;10.73;60.96;100095.03;2085728;28;46430;-65
2021/11/04 03:11:29;;;;;;;;;25.25;22.50;;;;;10.72;60.97;100090.66;2088321;28;48525;-65
2021/11/04 03:12:29;;;;;;;;;22.75;22.00;;;;;10.72;60.95;100088.84;2082378;28;47578;-65
2021/11/04 03:13:30;;;;;;;;;22.50;22.50;;;;;10.73;60.62;100093.25;2082186;28;46843;-66
2021/11/04 03:14:30;;;;;;;;;25.00;23.00;;;;;10.73;60.85;100095.91;2082338;28;47411;-65
2021/11/04 03:15:37;;;;;;;;;26.00;23.75;;;;;10.73;60.93;100095.03;2074133;28;45487;-65
2021/11/04 03:16:40;;;;;;;;;25.00;23.60;;;;;10.73;61.03;100097.69;2082857;28;48131;-65
2021/11/04 03:17:42;;;;;;;;;21.40;21.20;;;;;10.73;60.77;100092.38;2082238;28;48495;-65
2021/11/04 03:18:43;;;;;;;;;25.80;25.80;;;;;10.75;60.99;100101.16;2082421;28;48481;-65
2021/11/04 03:19:43;;;;;;;;;23.20;23.20;;;;;10.74;61.01;100089.66;2088383;28;48264;-65
2021/11/04 03:20:46;;;;;;;;;24.75;22.25;;;;;10.76;60.76;100089.63;2082166;28;47609;-65
2021/11/04 03:21:49;;;;;;;;;22.80;21.80;;;;;10.77;60.94;100094.88;2065860;28;47311;-65
2021/11/04 03:22:50;;;;;;;;;22.80;22.20;;;;;10.78;60.99;100090.44;2074756;28;48261;-64
2021/11/04 03:23:51;;;;;;;;;24.00;24.00;;;;;10.78;60.99;100096.59;2082300;28;45845;-64
2021/11/04 03:24:51;;;;;;;;;26.25;24.25;;;;;10.80;61.04;100097.44;2081386;28;48145;-64
2021/11/04 03:25:55;;;;;;;;;20.75;19.75;;;;;10.81;61.03;100093.88;2086127;28;46723;-65
2021/11/04 03:27:01;;;;;;;;;24.20;23.40;;;;;10.84;60.94;100098.22;2092651;28;47246;-65
2021/11/04 03:28:02;;;;;;;;;24.40;23.80;;;;;10.83;60.99;100096.47;2092458;28;47895;-64
2021/11/04 03:29:04;;;;;;;;;25.40;23.20;;;;;10.83;61.03;100100.00;2092847;28;45438;-64
2021/11/04 03:30:06;;;;;;;;;22.80;22.00;;;;;10.84;60.89;100095.56;2083570;28;46405;-65
2021/11/04 03:31:07;;;;;;;;;21.40;20.80;;;;;10.84;60.88;100101.72;2083216;28;47467;-65
2021/11/04 03:32:15;;;;;;;;;19.40;18.20;;;;;10.86;60.77;100101.69;2086227;28;45369;-65
2021/11/04 03:33:18;;;;;;;;;25.60;22.20;;;;;10.86;60.88;100102.53;2092555;28;46381;-65
2021/11/04 03:34:19;;;;;;;;;25.60;23.40;;;;;10.87;60.88;100095.44;2092415;28;48311;-65
2021/11/04 03:35:20;;;;;;;;;23.60;22.20;;;;;10.87;61.00;100106.06;2092473;28;46358;-65
2021/11/04 03:36:22;;;;;;;;;27.00;22.60;;;;;10.86;60.86;100101.69;2092939;28;47258;-65
2021/11/04 03:37:27;;;;;;;;;22.00;22.00;;;;;10.87;61.22;100109.59;2084117;28;45245;-65
2021/11/04 03:38:28;;;;;;;;;23.60;21.60;;;;;10.87;61.05;100108.72;2084603;28;47213;-65
2021/11/04 03:39:29;;;;;;;;;20.60;20.40;;;;;10.87;60.78;100106.06;2083537;28;48460;-65
2021/11/04 03:40:29;;;;;;;;;20.00;19.00;;;;;10.86;60.65;100110.50;2083897;28;47392;-65
2021/11/04 03:41:31;;;;;;;;;18.25;17.00;;;;;10.87;60.99;100103.41;2093709;28;47093;-65
2021/11/04 03:42:32;;;;;;;;;20.00;18.60;;;;;10.86;60.69;100099.91;2094500;28;47337;-66
2021/11/04 03:43:34;;;;;;;;;20.80;19.40;;;;;10.86;60.91;100101.69;2092308;28;47271;-66
2021/11/04 03:44:37;;;;;;;;;19.80;18.20;;;;;10.88;60.67;100107.81;2089380;28;48341;-65
2021/11/04 03:45:38;;;;;;;;;22.80;21.60;;;;;10.88;60.84;100108.66;2092220;28;47500;-68
2021/11/04 03:46:42;;;;;;;;;23.40;20.80;;;;;10.89;60.77;100106.88;2083820;28;47301;-67
2021/11/04 03:47:44;;;;;;;;;23.40;21.80;;;;;10.90;60.78;100105.97;2075608;28;48071;-68
2021/11/04 03:48:46;;;;;;;;;20.80;19.40;;;;;10.92;60.72;100112.09;2083932;28;48418;-68
2021/11/04 03:49:50;;;;;;;;;20.80;20.40;;;;;10.93;60.94;100111.19;2091480;28;47258;-68
2021/11/04 03:50:51;;;;;;;;;19.00;19.00;;;;;10.95;61.01;100112.00;2090907;28;47435;-68
2021/11/04 03:51:54;;;;;;;;;25.60;22.20;;;;;10.96;60.75;100112.88;2092137;28;47258;-77
2021/11/04 03:52:56;;;;;;;;;19.80;17.80;;;;;10.95;60.95;100114.66;2083580;28;47445;-79
2021/11/04 03:53:56;;;;;;;;;18.40;16.00;;;;;10.96;60.55;100116.41;2083283;28;46342;-77
2021/11/04 03:54:58;;;;;;;;;23.60;21.60;;;;;10.98;60.82;100113.69;2092001;28;47960;-77
2021/11/04 03:55:58;;;;;;;;;20.60;17.40;;;;;10.98;60.87;100116.34;2090105;28;48252;-80
2021/11/04 03:56:59;;;;;;;;;18.75;18.75;;;;;10.99;60.63;100118.94;2083609;28;47416;-72
2021/11/04 03:58:01;;;;;;;;;21.60;19.00;;;;;11.01;60.79;100121.53;2083481;28;47100;-70
2021/11/04 03:59:02;;;;;;;;;21.60;21.60;;;;;11.01;60.63;100126.84;2083572;28;47065;-73
2021/11/04 04:00:03;;;;;;;;;20.25;20.00;;;;;11.02;60.57;100117.97;2075335;28;47422;-73
2021/11/04 04:01:04;;;;;;;;;18.60;18.60;;;;;11.03;60.62;100122.34;2075357;28;47815;-77
2021/11/04 04:02:08;;;;;;;;;19.00;18.50;;;;;11.04;60.60;100119.66;2083167;28;47094;-75
2021/11/04 04:03:09;;;;;;;;;21.00;20.00;;;;;11.06;60.84;100127.59;2086801;28;46564;-75
2021/11/04 04:04:10;;;;;;;;;18.25;18.25;;;;;11.08;60.75;100125.75;2095015;28;46349;-62
2021/11/04 04:05:10;;;;;;;;;19.40;18.80;;;;;11.09;60.84;100124.81;2095329;28;47148;-61
2021/11/04 04:06:11;;;;;;;;;17.50;17.50;;;;;11.08;60.48;100125.75;2093355;28;47683;-62
2021/11/04 04:07:11;;;;;;;;;17.75;17.75;;;;;11.09;60.68;100133.66;2075061;28;46270;-62
2021/11/04 04:08:12;;;;;;;;;18.50;18.50;;;;;11.10;60.62;100131.88;2075236;28;47479;-61
2021/11/04 04:09:12;;;;;;;;;21.00;21.00;;;;;11.11;60.60;100128.28;2092223;28;48657;-62
2021/11/04 04:10:13;;;;;;;;;18.75;15.50;;;;;11.12;60.52;100124.72;2092420;28;46426;-61
2021/11/04 04:11:14;;;;;;;;;17.75;17.75;;;;;11.14;60.70;100130.84;2089275;28;46159;-62
2021/11/04 04:12:15;;;;;;;;;19.00;16.80;;;;;11.15;60.89;100136.09;2092327;28;48545;-62
2021/11/04 04:13:15;;;;;;;;;21.75;19.50;;;;;11.16;60.80;100137.81;2091982;28;45362;-62
2021/11/04 04:14:16;;;;;;;;;19.00;16.75;;;;;11.18;60.60;100132.50;2092334;28;47187;-62
2021/11/04 04:15:16;;;;;;;;;19.75;19.50;;;;;11.17;60.64;100134.25;2092063;28;47766;-62
2021/11/04 04:16:18;;;;;;;;;18.25;18.25;;;;;11.19;60.85;100136.88;2092517;28;47224;-62
2021/11/04 04:17:21;;;;;;;;;21.60;19.60;;;;;11.21;60.70;100132.38;2091863;28;47260;-62
2021/11/04 04:18:21;;;;;;;;;19.20;19.20;;;;;11.21;60.54;100127.06;2092355;28;47475;-63
2021/11/04 04:19:22;;;;;;;;;20.00;18.00;;;;;11.22;60.59;100131.47;2091839;28;48120;-62
2021/11/04 04:20:25;;;;;;;;;20.40;20.20;;;;;11.23;60.77;100130.53;2092629;28;48091;-62
2021/11/04 04:21:25;;;;;;;;;20.40;20.40;;;;;11.24;60.61;100132.28;2078970;28;47629;-61
2021/11/04 04:22:26;;;;;;;;;20.25;19.00;;;;;11.24;60.45;100134.94;2082977;28;46239;-62
2021/11/04 04:23:26;;;;;;;;;20.75;19.25;;;;;11.25;60.30;100135.78;2091891;28;47383;-62
2021/11/04 04:24:27;;;;;;;;;25.25;24.75;;;;;11.25;60.66;100136.66;2083475;28;46136;-63
2021/11/04 04:25:30;;;;;;;;;20.75;20.00;;;;;11.26;60.69;100132.22;2076306;28;48224;-62
2021/11/04 04:26:30;;;;;;;;;16.20;16.20;;;;;11.26;60.61;100138.41;2085356;28;45220;-63
2021/11/04 04:27:31;;;;;;;;;20.50;19.00;;;;;11.26;60.72;100138.41;2083306;28;46148;-63
2021/11/04 04:28:32;;;;;;;;;19.50;18.50;;;;;11.27;60.60;100140.13;2083478;28;47131;-62
2021/11/04 04:29:32;;;;;;;;;21.25;19.75;;;;;11.27;60.62;100141.91;2083154;28;48304;-62
2021/11/04 04:30:33;;;;;;;;;19.00;18.25;;;;;11.27;60.79;100140.13;2083476;28;48204;-62
2021/11/04 04:31:33;;;;;;;;;19.50;18.25;;;;;11.27;60.81;100137.47;2086832;28;48281;-63
2021/11/04 04:32:34;;;;;;;;;19.00;18.00;;;;;11.28;60.87;100147.19;2092111;28;47034;-62
2021/11/04 04:33:34;;;;;;;;;11.50;10.00;;;;;11.28;60.87;100143.66;2091909;28;47316;-62
2021/11/04 04:34:35;;;;;;;;;19.50;19.25;;;;;11.27;60.70;100150.75;2092050;28;46140;-62
2021/11/04 04:35:36;;;;;;;;;19.00;19.00;;;;;11.27;60.92;100142.78;2091938;28;47494;-62
2021/11/04 04:36:36;;;;;;;;;20.00;20.00;;;;;11.27;60.68;100148.09;2092329;28;47363;-70
2021/11/04 04:37:37;;;;;;;;;17.00;17.00;;;;;11.27;61.07;100148.09;2085232;28;47367;-68
2021/11/04 04:38:37;;;;;;;;;18.25;18.25;;;;;11.28;61.08;100157.78;2082874;28;46977;-68
2021/11/04 04:39:38;;;;;;;;;19.50;19.50;;;;;11.27;61.15;100153.41;2092090;28;47076;-67
2021/11/04 04:40:38;;;;;;;;;18.50;17.00;;;;;11.28;61.23;100155.16;2093189;28;45476;-68
2021/11/04 04:41:39;;;;;;;;;20.50;19.00;;;;;11.28;61.07;100160.47;2093704;28;47331;-68